sensor_id;sensor_type;location;lat;lon;timestamp;pressure;altitude;pressure_sealevel;temperature;humidity
74524;BME280;63074;44.696;10.358;2023-08-06T00:02:01;98947.75;;;24.51;100.00
74524;BME280;63074;44.696;10.358;2023-08-06T00:04:28;98963.94;;;24.56;100.00
74524;BME280;63074;44.696;10.358;2023-08-06T00:06:54;98965.72;;;25.12;100.00
74524;BME280;63074;44.696;10.358;2023-08-06T00:09:20;98987.06;;;24.87;100.00
74524;BME280;63074;44.696;10.358;2023-08-06T00:14:13;98965.38;;;24.66;100.00
74524;BME280;63074;44.696;10.358;2023-08-06T00:16:43;98959.97;;;24.70;100.00
74524;BME280;63074;44.696;10.358;2023-08-06T00:19:10;98936.16;;;24.14;100.00
74524;BME280;63074;44.696;10.358;2023-08-06T00:21:36;98963.66;;;25.09;100.00
74524;BME280;63074;44.696;10.358;2023-08-06T00:24:03;98985.00;;;24.84;100.00
74524;BME280;63074;44.696;10.358;2023-08-06T00:26:29;98978.81;;;24.87;100.00
74524;BME280;63074;44.696;10.358;2023-08-06T00:28:55;98966.47;;;25.12;100.00
74524;BME280;63074;44.696;10.358;2023-08-06T00:31:21;98987.50;;;25.75;100.00
74524;BME280;63074;44.696;10.358;2023-08-06T00:36:13;98941.06;;;24.84;100.00
74524;BME280;63074;44.696;10.358;2023-08-06T00:38:39;98986.91;;;25.11;100.00
74524;BME280;63074;44.696;10.358;2023-08-06T00:41:05;98975.59;;;25.51;100.00
74524;BME280;63074;44.696;10.358;2023-08-06T00:43:32;98988.31;;;25.75;100.00
74524;BME280;63074;44.696;10.358;2023-08-06T00:45:58;98965.84;;;23.97;100.00
74524;BME280;63074;44.696;10.358;2023-08-06T00:48:24;98950.47;;;25.34;100.00
74524;BME280;63074;44.696;10.358;2023-08-06T00:50:51;98999.91;;;25.49;100.00
74524;BME280;63074;44.696;10.358;2023-08-06T00:53:17;98976.63;;;24.77;100.00
74524;BME280;63074;44.696;10.358;2023-08-06T00:55:45;98961.22;;;25.58;100.00
74524;BME280;63074;44.696;10.358;2023-08-06T00:58:12;98994.41;;;25.14;100.00
74524;BME280;63074;44.696;10.358;2023-08-06T01:00:40;98958.28;;;24.81;100.00
74524;BME280;63074;44.696;10.358;2023-08-06T01:03:06;98962.03;;;25.23;100.00
74524;BME280;63074;44.696;10.358;2023-08-06T01:05:32;98980.50;;;25.42;100.00
74524;BME280;63074;44.696;10.358;2023-08-06T01:14:08;98977.91;;;25.49;100.00
74524;BME280;63074;44.696;10.358;2023-08-06T01:16:39;99001.41;;;24.65;100.00
74524;BME280;63074;44.696;10.358;2023-08-06T01:19:19;98973.19;;;25.31;100.00
74524;BME280;63074;44.696;10.358;2023-08-06T01:21:45;99000.38;;;24.53;100.00
74524;BME280;63074;44.696;10.358;2023-08-06T01:24:12;98997.88;;;24.64;100.00
74524;BME280;63074;44.696;10.358;2023-08-06T01:29:28;98988.75;;;25.42;100.00
74524;BME280;63074;44.696;10.358;2023-08-06T01:31:57;99006.09;;;24.33;100.00
74524;BME280;63074;44.696;10.358;2023-08-06T01:34:29;98953.31;;;23.96;100.00
74524;BME280;63074;44.696;10.358;2023-08-06T01:36:57;98970.47;;;24.83;100.00
74524;BME280;63074;44.696;10.358;2023-08-06T01:39:23;98980.25;;;24.97;100.00
74524;BME280;63074;44.696;10.358;2023-08-06T01:41:50;98973.75;;;24.26;100.00
74524;BME280;63074;44.696;10.358;2023-08-06T01:44:16;98982.28;;;24.52;100.00
74524;BME280;63074;44.696;10.358;2023-08-06T01:46:42;98955.53;;;24.81;100.00
74524;BME280;63074;44.696;10.358;2023-08-06T01:49:09;99001.44;;;24.96;100.00
74524;BME280;63074;44.696;10.358;2023-08-06T01:51:35;98962.91;;;25.28;100.00
74524;BME280;63074;44.696;10.358;2023-08-06T01:54:01;99000.63;;;25.46;100.00
74524;BME280;63074;44.696;10.358;2023-08-06T01:56:27;99011.03;;;25.02;100.00
74524;BME280;63074;44.696;10.358;2023-08-06T01:58:53;99001.88;;;24.82;100.00
74524;BME280;63074;44.696;10.358;2023-08-06T02:01:19;99000.56;;;24.76;100.00
74524;BME280;63074;44.696;10.358;2023-08-06T02:03:46;98993.06;;;24.30;100.00
74524;BME280;63074;44.696;10.358;2023-08-06T02:06:12;98989.72;;;24.68;100.00
74524;BME280;63074;44.696;10.358;2023-08-06T02:08:38;98987.22;;;24.94;100.00
74524;BME280;63074;44.696;10.358;2023-08-06T02:11:05;98981.63;;;25.22;100.00
74524;BME280;63074;44.696;10.358;2023-08-06T02:13:32;98959.72;;;25.26;100.00
74524;BME280;63074;44.696;10.358;2023-08-06T02:15:58;98984.91;;;25.47;100.00
74524;BME280;63074;44.696;10.358;2023-08-06T02:18:24;98990.56;;;25.35;100.00
74524;BME280;63074;44.696;10.358;2023-08-06T02:20:57;99020.84;;;25.54;100.00
74524;BME280;63074;44.696;10.358;2023-08-06T02:23:24;99043.06;;;24.51;100.00
74524;BME280;63074;44.696;10.358;2023-08-06T02:25:58;98980.16;;;24.62;100.00
74524;BME280;63074;44.696;10.358;2023-08-06T02:28:24;98959.97;;;24.70;100.00
74524;BME280;63074;44.696;10.358;2023-08-06T02:30:53;98962.66;;;24.22;100.00
74524;BME280;63074;44.696;10.358;2023-08-06T02:33:19;98922.09;;;23.72;100.00
74524;BME280;63074;44.696;10.358;2023-08-06T02:35:46;98943.44;;;24.22;100.00
74524;BME280;63074;44.696;10.358;2023-08-06T02:38:12;98934.88;;;24.71;100.00
74524;BME280;63074;44.696;10.358;2023-08-06T02:40:46;98951.88;;;24.92;100.00
74524;BME280;63074;44.696;10.358;2023-08-06T02:43:13;98950.44;;;25.14;100.00
74524;BME280;63074;44.696;10.358;2023-08-06T02:45:39;98957.88;;;25.14;100.00
74524;BME280;63074;44.696;10.358;2023-08-06T02:48:06;98947.09;;;25.60;100.00
74524;BME280;63074;44.696;10.358;2023-08-06T02:50:38;98975.41;;;25.25;100.00
74524;BME280;63074;44.696;10.358;2023-08-06T02:53:05;98997.44;;;24.94;100.00
74524;BME280;63074;44.696;10.358;2023-08-06T02:55:32;98986.91;;;25.11;100.00
74524;BME280;63074;44.696;10.358;2023-08-06T02:58:00;98965.81;;;25.54;100.00
74524;BME280;63074;44.696;10.358;2023-08-06T03:00:27;98980.31;;;25.51;100.00
74524;BME280;63074;44.696;10.358;2023-08-06T03:02:53;98975.50;;;25.64;100.00
74524;BME280;63074;44.696;10.358;2023-08-06T03:05:19;98969.28;;;25.67;100.00
74524;BME280;63074;44.696;10.358;2023-08-06T03:07:46;98966.91;;;25.65;98.87
74524;BME280;63074;44.696;10.358;2023-08-06T03:10:12;98961.72;;;26.02;94.73
74524;BME280;63074;44.696;10.358;2023-08-06T03:12:39;98945.53;;;26.20;90.20
74524;BME280;63074;44.696;10.358;2023-08-06T03:15:05;98964.03;;;26.00;91.81
74524;BME280;63074;44.696;10.358;2023-08-06T03:17:32;98957.34;;;26.20;89.46
74524;BME280;63074;44.696;10.358;2023-08-06T03:19:58;98948.72;;;26.22;87.56
74524;BME280;63074;44.696;10.358;2023-08-06T03:22:24;98962.56;;;26.26;87.70
74524;BME280;63074;44.696;10.358;2023-08-06T03:24:53;98962.78;;;26.17;88.25
74524;BME280;63074;44.696;10.358;2023-08-06T03:27:19;98977.63;;;26.12;89.75
74524;BME280;63074;44.696;10.358;2023-08-06T03:29:48;98994.66;;;26.18;92.77
74524;BME280;63074;44.696;10.358;2023-08-06T03:32:12;99008.31;;;25.92;95.66
74524;BME280;63074;44.696;10.358;2023-08-06T03:34:39;99035.44;;;25.74;100.00
74524;BME280;63074;44.696;10.358;2023-08-06T03:37:05;99008.88;;;26.01;96.88
74524;BME280;63074;44.696;10.358;2023-08-06T03:39:31;99005.28;;;25.97;94.91
74524;BME280;63074;44.696;10.358;2023-08-06T03:41:57;98988.72;;;26.16;90.25
74524;BME280;63074;44.696;10.358;2023-08-06T03:44:23;98991.41;;;26.12;89.18
74524;BME280;63074;44.696;10.358;2023-08-06T03:46:50;99017.94;;;25.82;90.50
74524;BME280;63074;44.696;10.358;2023-08-06T03:49:16;99023.00;;;25.80;91.34
74524;BME280;63074;44.696;10.358;2023-08-06T03:51:42;99028.03;;;25.58;92.78
74524;BME280;63074;44.696;10.358;2023-08-06T03:54:08;99018.44;;;25.87;92.03
74524;BME280;63074;44.696;10.358;2023-08-06T03:56:34;99017.22;;;25.85;91.17
74524;BME280;63074;44.696;10.358;2023-08-06T03:59:01;99024.44;;;25.39;91.92
74524;BME280;63074;44.696;10.358;2023-08-06T04:01:27;99010.69;;;25.39;89.14
74524;BME280;63074;44.696;10.358;2023-08-06T04:03:53;99030.88;;;25.11;91.81
74524;BME280;63074;44.696;10.358;2023-08-06T04:06:19;99035.75;;;25.02;92.23
74524;BME280;63074;44.696;10.358;2023-08-06T04:08:45;99034.91;;;24.86;93.23
74524;BME280;63074;44.696;10.358;2023-08-06T04:11:12;99019.16;;;24.67;91.18
74524;BME280;63074;44.696;10.358;2023-08-06T04:13:42;99007.53;;;25.21;88.00
74524;BME280;63074;44.696;10.358;2023-08-06T04:16:08;99012.06;;;25.13;86.84
74524;BME280;63074;44.696;10.358;2023-08-06T04:18:34;99011.19;;;24.78;86.87
74524;BME280;63074;44.696;10.358;2023-08-06T04:21:02;98989.69;;;25.15;83.01
74524;BME280;63074;44.696;10.358;2023-08-06T04:23:28;99001.09;;;24.98;84.33
74524;BME280;63074;44.696;10.358;2023-08-06T04:25:58;99004.84;;;25.24;84.05
74524;BME280;63074;44.696;10.358;2023-08-06T04:28:24;98989.69;;;25.15;83.00
74524;BME280;63074;44.696;10.358;2023-08-06T04:30:50;99007.81;;;25.00;85.98
74524;BME280;63074;44.696;10.358;2023-08-06T04:33:16;99028.72;;;24.73;89.10
74524;BME280;63074;44.696;10.358;2023-08-06T04:35:43;99021.91;;;24.83;87.20
74524;BME280;63074;44.696;10.358;2023-08-06T04:38:09;99035.88;;;24.62;88.70
74524;BME280;63074;44.696;10.358;2023-08-06T04:40:36;99026.41;;;24.91;87.26
74524;BME280;63074;44.696;10.358;2023-08-06T04:43:02;99020.28;;;25.29;86.65
74524;BME280;63074;44.696;10.358;2023-08-06T04:45:29;99030.31;;;25.21;88.68
74524;BME280;63074;44.696;10.358;2023-08-06T04:47:55;99021.34;;;25.40;86.17
74524;BME280;63074;44.696;10.358;2023-08-06T04:50:21;99029.81;;;25.00;88.94
74524;BME280;63074;44.696;10.358;2023-08-06T04:55:13;99062.19;;;24.47;96.35
74524;BME280;63074;44.696;10.358;2023-08-06T04:57:39;99052.09;;;24.67;96.14
74524;BME280;63074;44.696;10.358;2023-08-06T05:00:06;99074.94;;;24.55;99.50
74524;BME280;63074;44.696;10.358;2023-08-06T05:02:32;99085.84;;;24.24;100.00
74524;BME280;63074;44.696;10.358;2023-08-06T05:05:00;99059.28;;;24.72;100.00
74524;BME280;63074;44.696;10.358;2023-08-06T05:07:26;99077.31;;;24.01;100.00
74524;BME280;63074;44.696;10.358;2023-08-06T05:09:52;99060.31;;;24.23;100.00
74524;BME280;63074;44.696;10.358;2023-08-06T05:12:19;99075.72;;;23.60;100.00
74524;BME280;63074;44.696;10.358;2023-08-06T05:14:45;99056.13;;;24.14;100.00
74524;BME280;63074;44.696;10.358;2023-08-06T05:17:12;99053.31;;;23.98;100.00
74524;BME280;63074;44.696;10.358;2023-08-06T05:19:38;99046.31;;;24.13;100.00
74524;BME280;63074;44.696;10.358;2023-08-06T05:22:04;99020.66;;;24.80;100.00
74524;BME280;63074;44.696;10.358;2023-08-06T05:24:30;99020.56;;;24.92;99.38
74524;BME280;63074;44.696;10.358;2023-08-06T05:26:56;99007.66;;;25.09;96.87
74524;BME280;63074;44.696;10.358;2023-08-06T05:29:23;99019.78;;;24.76;100.00
74524;BME280;63074;44.696;10.358;2023-08-06T05:34:15;99020.94;;;24.75;100.00
74524;BME280;63074;44.696;10.358;2023-08-06T05:36:41;99025.00;;;24.22;100.00
74524;BME280;63074;44.696;10.358;2023-08-06T05:39:07;99007.00;;;25.15;99.04
74524;BME280;63074;44.696;10.358;2023-08-06T05:41:33;99018.38;;;24.98;100.00
74524;BME280;63074;44.696;10.358;2023-08-06T05:43:59;99020.50;;;25.05;100.00
74524;BME280;63074;44.696;10.358;2023-08-06T05:46:26;99026.13;;;25.28;100.00
74524;BME280;63074;44.696;10.358;2023-08-06T05:48:52;99022.69;;;25.31;99.67
74524;BME280;63074;44.696;10.358;2023-08-06T05:51:18;99029.78;;;25.32;100.00
74524;BME280;63074;44.696;10.358;2023-08-06T05:53:45;99023.47;;;25.31;99.13
74524;BME280;63074;44.696;10.358;2023-08-06T05:56:13;99003.09;;;25.51;95.25
74524;BME280;63074;44.696;10.358;2023-08-06T05:58:39;98997.25;;;25.53;94.55
74524;BME280;63074;44.696;10.358;2023-08-06T06:01:05;99001.56;;;25.35;94.37
74524;BME280;63074;44.696;10.358;2023-08-06T06:03:32;99011.34;;;25.51;93.54
74524;BME280;63074;44.696;10.358;2023-08-06T06:06:00;98969.38;;;26.12;88.50
74524;BME280;63074;44.696;10.358;2023-08-06T06:08:26;98974.81;;;26.09;86.59
74524;BME280;63074;44.696;10.358;2023-08-06T06:10:53;98974.34;;;26.45;83.90
74524;BME280;63074;44.696;10.358;2023-08-06T06:13:19;98989.88;;;26.15;83.79
74524;BME280;63074;44.696;10.358;2023-08-06T06:15:47;98986.28;;;26.53;83.95
74524;BME280;63074;44.696;10.358;2023-08-06T06:18:13;98996.56;;;26.79;83.57
74524;BME280;63074;44.696;10.358;2023-08-06T06:20:39;98996.88;;;26.74;83.76
74524;BME280;63074;44.696;10.358;2023-08-06T06:23:06;99007.34;;;26.65;85.14
74524;BME280;63074;44.696;10.358;2023-08-06T06:25:32;99013.53;;;27.04;83.94
74524;BME280;63074;44.696;10.358;2023-08-06T06:27:58;99016.34;;;27.07;84.46
74524;BME280;63074;44.696;10.358;2023-08-06T06:30:25;99018.13;;;27.49;83.40
74524;BME280;63074;44.696;10.358;2023-08-06T06:32:51;99032.25;;;27.44;84.29
74524;BME280;63074;44.696;10.358;2023-08-06T06:35:17;99023.75;;;27.82;83.03
74524;BME280;63074;44.696;10.358;2023-08-06T06:37:43;99023.75;;;27.82;82.42
74524;BME280;63074;44.696;10.358;2023-08-06T06:40:10;99028.38;;;27.75;81.30
74524;BME280;63074;44.696;10.358;2023-08-06T06:42:36;99043.81;;;27.79;81.85
74524;BME280;63074;44.696;10.358;2023-08-06T06:45:02;99023.88;;;28.23;79.29
74524;BME280;63074;44.696;10.358;2023-08-06T06:47:28;99009.94;;;28.49;75.88
74524;BME280;63074;44.696;10.358;2023-08-06T06:49:55;99027.91;;;27.99;77.27
74524;BME280;63074;44.696;10.358;2023-08-06T06:52:21;99025.38;;;27.87;74.75
74524;BME280;63074;44.696;10.358;2023-08-06T06:57:13;98999.00;;;28.64;70.92
74524;BME280;63074;44.696;10.358;2023-08-06T06:59:39;98994.69;;;28.26;68.21
74524;BME280;63074;44.696;10.358;2023-08-06T07:02:06;99001.81;;;28.30;68.17
74524;BME280;63074;44.696;10.358;2023-08-06T07:04:32;99020.31;;;28.22;69.44
74524;BME280;63074;44.696;10.358;2023-08-06T07:06:58;99024.34;;;28.32;69.71
74524;BME280;63074;44.696;10.358;2023-08-06T07:09:24;99012.88;;;29.15;67.13
74524;BME280;63074;44.696;10.358;2023-08-06T07:11:50;99023.94;;;29.18;68.78
74524;BME280;63074;44.696;10.358;2023-08-06T07:14:18;99027.25;;;28.83;67.89
74524;BME280;63074;44.696;10.358;2023-08-06T07:16:44;99018.81;;;29.17;67.13
74524;BME280;63074;44.696;10.358;2023-08-06T07:19:10;99013.91;;;29.44;66.29
74524;BME280;63074;44.696;10.358;2023-08-06T07:21:36;99031.28;;;29.41;67.83
74524;BME280;63074;44.696;10.358;2023-08-06T07:24:03;99050.44;;;29.16;71.44
74524;BME280;63074;44.696;10.358;2023-08-06T07:26:29;99143.00;;;28.21;87.89
74524;BME280;63074;44.696;10.358;2023-08-06T07:28:55;99128.00;;;28.52;86.91
74524;BME280;63074;44.696;10.358;2023-08-06T07:31:21;99133.13;;;28.84;89.73
74524;BME280;63074;44.696;10.358;2023-08-06T07:36:14;99125.56;;;28.81;89.00
74524;BME280;63074;44.696;10.358;2023-08-06T07:38:41;99132.69;;;29.26;94.89
74524;BME280;63074;44.696;10.358;2023-08-06T07:41:08;99119.91;;;29.55;94.14
74524;BME280;63074;44.696;10.358;2023-08-06T07:43:35;99099.91;;;29.28;86.52
74524;BME280;63074;44.696;10.358;2023-08-06T07:46:04;99143.59;;;28.71;93.08
74524;BME280;63074;44.696;10.358;2023-08-06T07:48:30;99026.31;;;29.13;70.05
74524;BME280;63074;44.696;10.358;2023-08-06T07:50:57;99018.41;;;29.11;66.97
74524;BME280;63074;44.696;10.358;2023-08-06T07:53:24;99011.22;;;29.62;65.66
74524;BME280;63074;44.696;10.358;2023-08-06T07:55:53;99014.84;;;29.73;63.49
74524;BME280;63074;44.696;10.358;2023-08-06T07:58:20;99004.84;;;29.54;61.65
74524;BME280;63074;44.696;10.358;2023-08-06T08:00:47;98997.81;;;29.74;59.16
74524;BME280;63074;44.696;10.358;2023-08-06T08:03:16;98982.84;;;29.13;55.50
74524;BME280;63074;44.696;10.358;2023-08-06T08:05:43;99005.34;;;29.77;58.22
74524;BME280;63074;44.696;10.358;2023-08-06T08:08:10;99004.03;;;29.50;57.44
74524;BME280;63074;44.696;10.358;2023-08-06T08:10:36;99012.53;;;29.89;58.32
74524;BME280;63074;44.696;10.358;2023-08-06T08:13:04;99004.56;;;29.80;56.65
74524;BME280;63074;44.696;10.358;2023-08-06T08:15:31;99002.84;;;29.44;54.71
74524;BME280;63074;44.696;10.358;2023-08-06T08:17:58;98996.63;;;29.75;54.09
74524;BME280;63074;44.696;10.358;2023-08-06T08:20:25;99000.25;;;29.86;55.10
74524;BME280;63074;44.696;10.358;2023-08-06T08:22:58;98989.41;;;29.53;53.66
74524;BME280;63074;44.696;10.358;2023-08-06T08:25:24;99000.56;;;29.67;54.42
74524;BME280;63074;44.696;10.358;2023-08-06T08:27:50;99000.03;;;30.34;54.75
74524;BME280;63074;44.696;10.358;2023-08-06T08:30:16;98996.84;;;30.18;53.10
74524;BME280;63074;44.696;10.358;2023-08-06T08:32:42;99000.13;;;30.59;52.80
74524;BME280;63074;44.696;10.358;2023-08-06T08:35:09;99005.59;;;30.48;53.17
74524;BME280;63074;44.696;10.358;2023-08-06T08:37:35;99016.59;;;30.02;52.80
74524;BME280;63074;44.696;10.358;2023-08-06T08:40:02;99011.06;;;30.13;53.11
74524;BME280;63074;44.696;10.358;2023-08-06T08:42:29;99013.78;;;29.99;53.16
74524;BME280;63074;44.696;10.358;2023-08-06T08:44:56;99014.69;;;30.28;53.04
74524;BME280;63074;44.696;10.358;2023-08-06T08:47:23;99012.72;;;30.32;52.92
74524;BME280;63074;44.696;10.358;2023-08-06T08:49:52;99011.91;;;30.28;53.39
74524;BME280;63074;44.696;10.358;2023-08-06T08:52:21;99015.84;;;30.23;55.10
74524;BME280;63074;44.696;10.358;2023-08-06T08:57:14;99003.19;;;30.22;50.76
74524;BME280;63074;44.696;10.358;2023-08-06T08:59:40;99028.94;;;30.40;51.99
74524;BME280;63074;44.696;10.358;2023-08-06T09:02:09;99040.41;;;30.35;52.58
74524;BME280;63074;44.696;10.358;2023-08-06T09:04:37;99029.03;;;30.83;51.67
74524;BME280;63074;44.696;10.358;2023-08-06T09:07:04;99008.81;;;31.00;48.31
74524;BME280;63074;44.696;10.358;2023-08-06T09:09:35;99058.75;;;31.07;53.16
74524;BME280;63074;44.696;10.358;2023-08-06T09:12:12;99074.94;;;30.55;53.86
74524;BME280;63074;44.696;10.358;2023-08-06T09:14:38;99078.53;;;30.67;54.33
74524;BME280;63074;44.696;10.358;2023-08-06T09:17:04;99061.13;;;30.73;52.53
74524;BME280;63074;44.696;10.358;2023-08-06T09:19:32;99061.56;;;31.18;51.95
74524;BME280;63074;44.696;10.358;2023-08-06T09:21:59;99064.28;;;30.79;52.56
74524;BME280;63074;44.696;10.358;2023-08-06T09:24:26;99027.47;;;31.14;47.57
74524;BME280;63074;44.696;10.358;2023-08-06T09:26:52;99029.03;;;31.01;48.53
74524;BME280;63074;44.696;10.358;2023-08-06T09:29:19;99065.50;;;31.03;51.75
74524;BME280;63074;44.696;10.358;2023-08-06T09:31:47;99051.53;;;30.46;49.56
74524;BME280;63074;44.696;10.358;2023-08-06T09:34:17;99064.69;;;31.02;52.97
74524;BME280;63074;44.696;10.358;2023-08-06T09:39:18;99049.22;;;30.90;49.73
74524;BME280;63074;44.696;10.358;2023-08-06T09:41:45;99046.47;;;31.44;48.20
74524;BME280;63074;44.696;10.358;2023-08-06T09:44:21;99019.47;;;31.48;46.47
74524;BME280;63074;44.696;10.358;2023-08-06T09:49:15;98986.00;;;32.05;42.26
74524;BME280;63074;44.696;10.358;2023-08-06T09:51:42;98936.94;;;31.66;36.55
74524;BME280;63074;44.696;10.358;2023-08-06T09:54:09;98937.31;;;31.75;36.63
74524;BME280;63074;44.696;10.358;2023-08-06T09:56:38;98918.47;;;31.13;33.70
74524;BME280;63074;44.696;10.358;2023-08-06T09:59:08;98941.44;;;31.03;35.26
74524;BME280;63074;44.696;10.358;2023-08-06T10:01:35;98934.75;;;30.79;35.79
74524;BME280;63074;44.696;10.358;2023-08-06T10:04:06;98895.38;;;31.45;32.00
74524;BME280;63074;44.696;10.358;2023-08-06T10:06:37;98879.22;;;31.11;31.00
74524;BME280;63074;44.696;10.358;2023-08-06T10:09:04;98887.50;;;31.33;31.82
74524;BME280;63074;44.696;10.358;2023-08-06T10:11:31;98883.97;;;31.11;31.61
74524;BME280;63074;44.696;10.358;2023-08-06T10:14:15;98890.72;;;30.99;32.96
74524;BME280;63074;44.696;10.358;2023-08-06T10:16:42;98877.19;;;31.26;30.05
74524;BME280;63074;44.696;10.358;2023-08-06T10:19:12;98852.75;;;30.82;28.72
74524;BME280;63074;44.696;10.358;2023-08-06T10:21:40;98847.94;;;31.00;29.23
74524;BME280;63074;44.696;10.358;2023-08-06T10:24:09;98864.97;;;30.95;29.45
74524;BME280;63074;44.696;10.358;2023-08-06T10:26:40;98864.22;;;31.89;30.02
74524;BME280;63074;44.696;10.358;2023-08-06T10:29:36;98832.47;;;31.90;27.99
74524;BME280;63074;44.696;10.358;2023-08-06T10:32:02;98862.19;;;32.52;30.63
74524;BME280;63074;44.696;10.358;2023-08-06T10:37:16;98859.59;;;31.68;29.37
74524;BME280;63074;44.696;10.358;2023-08-06T10:42:22;98844.09;;;31.74;28.44
74524;BME280;63074;44.696;10.358;2023-08-06T10:47:27;98826.13;;;31.89;26.51
74524;BME280;63074;44.696;10.358;2023-08-06T10:49:54;98821.31;;;31.97;27.01
74524;BME280;63074;44.696;10.358;2023-08-06T10:52:20;98844.97;;;32.16;27.97
74524;BME280;63074;44.696;10.358;2023-08-06T10:54:46;98828.72;;;32.11;28.06
74524;BME280;63074;44.696;10.358;2023-08-06T10:57:12;98841.63;;;32.39;28.05
74524;BME280;63074;44.696;10.358;2023-08-06T10:59:39;98821.53;;;31.62;26.39
74524;BME280;63074;44.696;10.358;2023-08-06T11:02:06;98830.72;;;32.62;27.34
74524;BME280;63074;44.696;10.358;2023-08-06T11:04:32;98825.31;;;31.93;26.72
74524;BME280;63074;44.696;10.358;2023-08-06T11:06:59;98813.50;;;31.78;27.29
74524;BME280;63074;44.696;10.358;2023-08-06T11:09:25;98824.59;;;31.78;27.19
74524;BME280;63074;44.696;10.358;2023-08-06T11:11:52;98824.06;;;31.28;26.55
74524;BME280;63074;44.696;10.358;2023-08-06T11:14:18;98835.28;;;32.38;27.64
74524;BME280;63074;44.696;10.358;2023-08-06T11:16:45;98830.44;;;32.91;27.99
74524;BME280;63074;44.696;10.358;2023-08-06T11:19:11;98843.59;;;32.86;27.74
74524;BME280;63074;44.696;10.358;2023-08-06T11:21:37;98848.09;;;32.70;28.78
74524;BME280;63074;44.696;10.358;2023-08-06T11:24:05;98832.94;;;32.78;27.76
74524;BME280;63074;44.696;10.358;2023-08-06T11:26:31;98823.59;;;32.09;26.67
74524;BME280;63074;44.696;10.358;2023-08-06T11:28:58;98811.53;;;32.34;26.10
74524;BME280;63074;44.696;10.358;2023-08-06T11:31:24;98818.97;;;32.40;26.73
74524;BME280;63074;44.696;10.358;2023-08-06T11:33:51;98809.78;;;32.47;27.04
74524;BME280;63074;44.696;10.358;2023-08-06T11:36:17;98825.16;;;32.62;28.23
74524;BME280;63074;44.696;10.358;2023-08-06T11:38:54;98805.59;;;32.28;25.86
74524;BME280;63074;44.696;10.358;2023-08-06T11:41:20;98812.00;;;32.18;26.81
74524;BME280;63074;44.696;10.358;2023-08-06T11:43:46;98817.28;;;32.53;26.80
74524;BME280;63074;44.696;10.358;2023-08-06T11:46:13;98820.63;;;31.82;26.96
74524;BME280;63074;44.696;10.358;2023-08-06T11:51:14;98824.94;;;33.17;27.73
74524;BME280;63074;44.696;10.358;2023-08-06T11:53:41;98831.03;;;33.05;27.32
74524;BME280;63074;44.696;10.358;2023-08-06T11:56:12;98813.69;;;33.25;26.70
74524;BME280;63074;44.696;10.358;2023-08-06T11:58:41;98826.69;;;33.96;28.03
74524;BME280;63074;44.696;10.358;2023-08-06T12:01:08;98806.06;;;33.63;26.54
74524;BME280;63074;44.696;10.358;2023-08-06T12:03:39;98802.16;;;32.92;26.59
74524;BME280;63074;44.696;10.358;2023-08-06T12:06:06;98806.38;;;33.41;26.25
74524;BME280;63074;44.696;10.358;2023-08-06T12:08:35;98795.66;;;33.40;25.65
74524;BME280;63074;44.696;10.358;2023-08-06T12:11:04;98799.94;;;33.14;26.67
74524;BME280;63074;44.696;10.358;2023-08-06T12:13:30;98827.44;;;33.69;27.79
74524;BME280;63074;44.696;10.358;2023-08-06T12:15:56;98810.22;;;34.05;26.67
74524;BME280;63074;44.696;10.358;2023-08-06T12:18:23;98814.06;;;33.87;26.54
74524;BME280;63074;44.696;10.358;2023-08-06T12:23:15;98803.59;;;33.41;26.70
74524;BME280;63074;44.696;10.358;2023-08-06T12:25:42;98813.81;;;34.05;27.14
74524;BME280;63074;44.696;10.358;2023-08-06T12:28:08;98808.38;;;33.95;27.62
74524;BME280;63074;44.696;10.358;2023-08-06T12:30:35;98819.19;;;34.16;28.14
74524;BME280;63074;44.696;10.358;2023-08-06T12:33:02;98803.66;;;33.92;26.42
74524;BME280;63074;44.696;10.358;2023-08-06T12:35:28;98811.00;;;34.32;26.86
74524;BME280;63074;44.696;10.358;2023-08-06T12:37:54;98791.69;;;35.04;25.40
74524;BME280;63074;44.696;10.358;2023-08-06T12:40:24;98802.94;;;35.01;26.51
74524;BME280;63074;44.696;10.358;2023-08-06T12:45:16;98788.00;;;34.91;25.72
74524;BME280;63074;44.696;10.358;2023-08-06T12:47:42;98796.50;;;35.04;25.56
74524;BME280;63074;44.696;10.358;2023-08-06T12:50:08;98795.69;;;35.03;25.33
74524;BME280;63074;44.696;10.358;2023-08-06T12:52:35;98795.13;;;35.68;25.12
74524;BME280;63074;44.696;10.358;2023-08-06T12:55:01;98789.34;;;34.83;26.47
74524;BME280;63074;44.696;10.358;2023-08-06T12:57:27;98800.06;;;35.04;27.61
74524;BME280;63074;44.696;10.358;2023-08-06T12:59:55;98813.19;;;35.63;26.42
74524;BME280;63074;44.696;10.358;2023-08-06T13:02:21;98787.53;;;35.32;25.44
74524;BME280;63074;44.696;10.358;2023-08-06T13:07:14;98801.19;;;35.82;26.53
74524;BME280;63074;44.696;10.358;2023-08-06T13:09:40;98794.56;;;35.57;26.03
74524;BME280;63074;44.696;10.358;2023-08-06T13:12:06;98797.75;;;36.56;26.09
74524;BME280;63074;44.696;10.358;2023-08-06T13:14:33;98781.91;;;36.66;25.27
74524;BME280;63074;44.696;10.358;2023-08-06T13:16:59;98766.94;;;36.11;24.79
74524;BME280;63074;44.696;10.358;2023-08-06T13:19:25;98786.84;;;36.91;26.20
74524;BME280;63074;44.696;10.358;2023-08-06T13:21:58;98786.19;;;36.25;25.81
74524;BME280;63074;44.696;10.358;2023-08-06T13:24:24;98769.13;;;36.03;24.46
74524;BME280;63074;44.696;10.358;2023-08-06T13:26:51;98779.16;;;35.32;25.13
74524;BME280;63074;44.696;10.358;2023-08-06T13:29:17;98788.28;;;35.52;25.48
74524;BME280;63074;44.696;10.358;2023-08-06T13:31:43;98768.50;;;36.12;24.72
74524;BME280;63074;44.696;10.358;2023-08-06T13:34:09;98765.91;;;36.95;24.77
74524;BME280;63074;44.696;10.358;2023-08-06T13:36:35;98737.94;;;36.37;22.84